Time;durP1;ratioP1;P1;durP2;ratioP2;P2;SDS_P1;SDS_P2;PMS_P1;PMS_P2;Temp;Humidity;BMP_temperature;BMP_pressure;BME280_temperature;BME280_humidity;BME280_pressure;Samples;Min_cycle;Max_cycle;Signal;HPM_P1;HPM_P2
2023/06/15 00:04:04;;;;;;;;;;;;;;;21.18;44.91113;102051.3;;;;-67
2023/06/15 00:09:04;;;;;;;;;;;;;;;21.1;45.14355;102059;;;;-66
2023/06/15 00:10:38;;;;;;;0.2;0;;;;;;;;;;;;;-66
2023/06/15 00:14:09;;;;;;;;;;;;;;;21.02;45.18262;102051.7;;;;-67
2023/06/15 00:19:05;;;;;;;;;;;;;;;20.93;45.59668;102054.4;;;;-67
2023/06/15 00:24:05;;;;;;;;;;;;;;;20.9;45.35254;102053.9;;;;-68
2023/06/15 00:29:04;;;;;;;;;;;;;;;20.84;45.72559;102056.1;;;;-68
2023/06/15 00:34:04;;;;;;;;;;;;;;;20.83;45.11621;102054.3;;;;-68
2023/06/15 00:39:04;;;;;;;;;;;;;;;20.74;45.86328;102057.6;;;;-68
2023/06/15 00:40:41;;;;;;;0.2;0.1;;;;;;;;;;;;;-67
2023/06/15 00:44:04;;;;;;;;;;;;;;;20.67;45.76465;102054;;;;-69
2023/06/15 00:49:05;;;;;;;;;;;;;;;20.61;45.90625;102053.9;;;;-67
2023/06/15 00:54:05;;;;;;;;;;;;;;;20.58;46.18945;102055.9;;;;-67
2023/06/15 00:59:07;;;;;;;;;;;;;;;20.53;45.52148;102059.4;;;;-67
2023/06/15 01:04:04;;;;;;;;;;;;;;;20.46;45.69824;102058.1;;;;-67
2023/06/15 01:09:06;;;;;;;;;;;;;;;20.41;45.50977;102056.9;;;;-67
2023/06/15 01:10:45;;;;;;;0.3;0.1;;;;;;;;;;;;;-67
2023/06/15 01:14:05;;;;;;;;;;;;;;;20.34;45.33008;102054.2;;;;-69
2023/06/15 01:19:09;;;;;;;;;;;;;;;20.3;45.95508;102051.8;;;;-66
2023/06/15 01:24:11;;;;;;;;;;;;;;;20.23;45.73047;102054.5;;;;-68
2023/06/15 01:29:04;;;;;;;;;;;;;;;20.13;46.1084;102054.2;;;;-67
2023/06/15 01:34:05;;;;;;;;;;;;;;;20.12;46.62207;102056.6;;;;-68
2023/06/15 01:39:05;;;;;;;;;;;;;;;20.06;45.9541;102059.4;;;;-67
2023/06/15 01:40:54;;;;;;;0.4;0.2;;;;;;;;;;;;;-67
2023/06/15 01:44:05;;;;;;;;;;;;;;;20.02;46.11035;102055.5;;;;-67
2023/06/15 01:49:05;;;;;;;;;;;;;;;19.98;46.33301;102053.9;;;;-66
2023/06/15 01:54:05;;;;;;;;;;;;;;;19.89;46.00488;102054.2;;;;-67
2023/06/15 01:59:17;;;;;;;;;;;;;;;;;;;;;
2023/06/15 02:04:05;;;;;;;;;;;;;;;19.83;46.63672;102056.1;;;;-68
2023/06/15 02:09:04;;;;;;;;;;;;;;;19.79;45.97168;102051.9;;;;-68
2023/06/15 02:10:52;;;;;;;0.2;0.1;;;;;;;;;;;;;-68
2023/06/15 02:14:05;;;;;;;;;;;;;;;19.73;46.11328;102057.1;;;;-67
2023/06/15 02:19:05;;;;;;;;;;;;;;;19.65;46.36719;102053.4;;;;-66
2023/06/15 02:24:05;;;;;;;;;;;;;;;19.66;46.10547;102057.3;;;;-67
2023/06/15 02:29:05;;;;;;;;;;;;;;;19.6;45.79199;102058;;;;-68
2023/06/15 02:34:04;;;;;;;;;;;;;;;19.53;45.7959;102060.9;;;;-68
2023/06/15 02:39:05;;;;;;;;;;;;;;;19.47;45.81152;102062.4;;;;-68
2023/06/15 02:40:53;;;;;;;0.2;0;;;;;;;;;;;;;-67
2023/06/15 02:44:04;;;;;;;;;;;;;;;19.38;45.62012;102062.2;;;;-67
2023/06/15 02:49:04;;;;;;;;;;;;;;;19.37;45.76758;102058.8;;;;-67
2023/06/15 02:54:04;;;;;;;;;;;;;;;19.31;46.11523;102060.3;;;;-67
2023/06/15 02:59:05;;;;;;;;;;;;;;;19.24;46.16602;102060.4;;;;-67
2023/06/15 03:04:04;;;;;;;;;;;;;;;19.21;46.13867;102064;;;;-67
2023/06/15 03:09:07;;;;;;;;;;;;;;;19.14;46.05176;102062.3;;;;-68
2023/06/15 03:10:56;;;;;;;0.2;0.1;;;;;;;;;;;;;-68
2023/06/15 03:14:04;;;;;;;;;;;;;;;19.11;46.01367;102065.2;;;;-68
2023/06/15 03:19:05;;;;;;;;;;;;;;;19.04;45.97363;102062.3;;;;-68
2023/06/15 03:24:05;;;;;;;;;;;;;;;19;46.26563;102068.3;;;;-69
2023/06/15 03:29:04;;;;;;;;;;;;;;;19;46.25391;102069.7;;;;-68
2023/06/15 03:34:06;;;;;;;;;;;;;;;18.96;45.94141;102070.2;;;;-68
2023/06/15 03:39:06;;;;;;;;;;;;;;;18.88;45.99121;102068.9;;;;-67
2023/06/15 03:40:58;;;;;;;0.2;0;;;;;;;;;;;;;-67
2023/06/15 03:44:04;;;;;;;;;;;;;;;18.84;45.75879;102072.3;;;;-68
2023/06/15 03:49:05;;;;;;;;;;;;;;;18.82;45.88281;102076.2;;;;-68
2023/06/15 03:54:04;;;;;;;;;;;;;;;18.8;45.73145;102078.4;;;;-68
2023/06/15 03:59:04;;;;;;;;;;;;;;;18.78;46.08301;102072.5;;;;-67
2023/06/15 04:04:04;;;;;;;;;;;;;;;18.67;46.24219;102080;;;;-67
2023/06/15 04:09:05;;;;;;;;;;;;;;;18.65;46.19434;102079.8;;;;-68
2023/06/15 04:11:01;;;;;;;0.2;0;;;;;;;;;;;;;-67
2023/06/15 04:14:04;;;;;;;;;;;;;;;18.63;46.2041;102081.2;;;;-67
2023/06/15 04:19:04;;;;;;;;;;;;;;;18.62;46.27148;102076.5;;;;-67
2023/06/15 04:24:05;;;;;;;;;;;;;;;18.58;46.02832;102075.8;;;;-67
2023/06/15 04:29:04;;;;;;;;;;;;;;;18.57;46.02734;102082.4;;;;-66
2023/06/15 04:34:06;;;;;;;;;;;;;;;18.62;46.18066;102086.6;;;;-66
2023/06/15 04:39:04;;;;;;;;;;;;;;;18.59;46.12012;102088.9;;;;-68
2023/06/15 04:41:07;;;;;;;0.3;0.2;;;;;;;;;;;;;-67
2023/06/15 04:44:04;;;;;;;;;;;;;;;18.62;46.22559;102092.8;;;;-67
2023/06/15 04:49:05;;;;;;;;;;;;;;;18.62;46.07813;102091.8;;;;-69
2023/06/15 04:54:04;;;;;;;;;;;;;;;18.66;46.11621;102097;;;;-67
2023/06/15 04:59:04;;;;;;;;;;;;;;;18.71;46.15527;102103.4;;;;-68
2023/06/15 05:04:05;;;;;;;;;;;;;;;18.76;46.0127;102102.1;;;;-68
2023/06/15 05:09:07;;;;;;;;;;;;;;;18.82;46.03027;102107.4;;;;-69
2023/06/15 05:11:06;;;;;;;0.2;0.1;;;;;;;;;;;;;-67
2023/06/15 05:14:05;;;;;;;;;;;;;;;18.89;45.93457;102112.5;;;;-68
2023/06/15 05:19:04;;;;;;;;;;;;;;;19.01;45.98145;102107.5;;;;-68
2023/06/15 05:24:04;;;;;;;;;;;;;;;19.21;45.97949;102109.3;;;;-68
2023/06/15 05:29:04;;;;;;;;;;;;;;;19.87;45.39746;102112.5;;;;-68
2023/06/15 05:34:04;;;;;;;;;;;;;;;20.71;43.74316;102104.6;;;;-67
2023/06/15 05:39:06;;;;;;;;;;;;;;;21.38;42.75391;102108.6;;;;-68
2023/06/15 05:41:08;;;;;;;0.2;0;;;;;;;;;;;;;-67
2023/06/15 05:44:07;;;;;;;;;;;;;;;21.99;41.98633;102108.5;;;;-68
2023/06/15 05:49:04;;;;;;;;;;;;;;;22.55;41.53223;102106.6;;;;-68
2023/06/15 05:54:04;;;;;;;;;;;;;;;23.01;41.1377;102106.6;;;;-67
2023/06/15 05:59:05;;;;;;;;;;;;;;;23.45;40.78613;102111.1;;;;-66
2023/06/15 06:04:04;;;;;;;;;;;;;;;23.96;40.25488;102113.4;;;;-67
2023/06/15 06:09:05;;;;;;;;;;;;;;;24.46;39.43359;102110.1;;;;-67
2023/06/15 06:11:11;;;;;;;0.2;0;;;;;;;;;;;;;-67
2023/06/15 06:14:05;;;;;;;;;;;;;;;24.85;39.33984;102112.1;;;;-68
2023/06/15 06:19:07;;;;;;;;;;;;;;;25.24;38.94629;102105.2;;;;-68
2023/06/15 06:24:04;;;;;;;;;;;;;;;25.56;38.86816;102107.3;;;;-67
2023/06/15 06:29:05;;;;;;;;;;;;;;;26.03;38.42188;102111.9;;;;-68
2023/06/15 06:34:06;;;;;;;;;;;;;;;26.35;38.19434;102111.2;;;;-67
2023/06/15 06:39:04;;;;;;;;;;;;;;;26.68;38.02441;102108.4;;;;-69
2023/06/15 06:41:15;;;;;;;0.2;0;;;;;;;;;;;;;-68
2023/06/15 06:44:04;;;;;;;;;;;;;;;27.04;37.58984;102112.5;;;;-66
2023/06/15 06:49:04;;;;;;;;;;;;;;;27.42;37.26074;102117.4;;;;-68
2023/06/15 06:54:04;;;;;;;;;;;;;;;27.61;37.03125;102127.8;;;;-68
2023/06/15 06:59:04;;;;;;;;;;;;;;;27.71;37.25;102131.4;;;;-67
2023/06/15 07:04:04;;;;;;;;;;;;;;;27.81;37.37402;102127.1;;;;-68
2023/06/15 07:09:05;;;;;;;;;;;;;;;28.09;37.03516;102130;;;;-71
2023/06/15 07:11:22;;;;;;;0.2;0;;;;;;;;;;;;;-71
2023/06/15 07:14:05;;;;;;;;;;;;;;;28.38;36.70996;102128.5;;;;-71
2023/06/15 07:19:04;;;;;;;;;;;;;;;28.57;36.53906;102135;;;;-70
2023/06/15 07:24:04;;;;;;;;;;;;;;;28.63;36.75293;102133.8;;;;-70
2023/06/15 07:29:06;;;;;;;;;;;;;;;28.79;36.38086;102140.2;;;;-72
2023/06/15 07:34:05;;;;;;;;;;;;;;;28.78;36.43848;102140.8;;;;-71
2023/06/15 07:39:07;;;;;;;;;;;;;;;28.95;36.19434;102142.5;;;;-70
2023/06/15 07:41:25;;;;;;;0.1;0;;;;;;;;;;;;;-72
2023/06/15 07:44:05;;;;;;;;;;;;;;;29.08;35.93652;102141.5;;;;-72
2023/06/15 07:49:08;;;;;;;;;;;;;;;29.22;35.52637;102143.3;;;;-71
2023/06/15 07:54:05;;;;;;;;;;;;;;;29.52;35.10449;102144;;;;-71
2023/06/15 07:59:05;;;;;;;;;;;;;;;29.48;34.97363;102141.2;;;;-71
2023/06/15 08:04:07;;;;;;;;;;;;;;;29.58;34.46582;102147.8;;;;-71
2023/06/15 08:09:06;;;;;;;;;;;;;;;29.68;34.34473;102145.3;;;;-71
2023/06/15 08:11:31;;;;;;;0.2;0.1;;;;;;;;;;;;;-72
2023/06/15 08:14:05;;;;;;;;;;;;;;;29.6;34.15137;102141.8;;;;-70
2023/06/15 08:19:14;;;;;;;;;;;;;;;29.72;33.72754;102135.2;;;;-71
2023/06/15 08:24:04;;;;;;;;;;;;;;;29.95;33.55566;102129.9;;;;-70
2023/06/15 08:29:04;;;;;;;;;;;;;;;30.01;33.46777;102135.2;;;;-72
2023/06/15 08:34:04;;;;;;;;;;;;;;;30.16;32.93945;102136.5;;;;-71
2023/06/15 08:39:04;;;;;;;;;;;;;;;30.2;32.78906;102137.5;;;;-72
2023/06/15 08:41:38;;;;;;;0.2;0;;;;;;;;;;;;;-71
2023/06/15 08:47:40;;;;;;;;;;;;;;;30.63;32.36328;102140.1;;;;-71
2023/06/15 08:52:31;;;;;;;;;;;;;;;30.75;31.88867;102138.6;;;;-72
2023/06/15 08:57:32;;;;;;;;;;;;;;;30.81;31.3418;102138.9;;;;-71
2023/06/15 09:02:32;;;;;;;;;;;;;;;31.01;31.02637;102142;;;;-71
2023/06/15 09:07:31;;;;;;;;;;;;;;;31.24;30.68848;102138.7;;;;-70
2023/06/15 09:11:41;;;;;;;0.4;0;;;;;;;;;;;;;-71
2023/06/15 09:12:30;;;;;;;;;;;;;;;31.48;30.24512;102141.7;;;;-71
2023/06/15 09:17:35;;;;;;;;;;;;;;;31.61;29.71289;102140.5;;;;-71
2023/06/15 09:22:32;;;;;;;;;;;;;;;31.81;29.53711;102137;;;;-71
2023/06/15 09:27:30;;;;;;;;;;;;;;;32.01;28.93652;102132.4;;;;-70
2023/06/15 09:32:31;;;;;;;;;;;;;;;32.25;28.52734;102139.5;;;;-72
2023/06/15 09:37:33;;;;;;;;;;;;;;;32.31;27.69336;102139.2;;;;-70
2023/06/15 09:41:53;;;;;;;0.3;0.1;;;;;;;;;;;;;-71
2023/06/15 09:42:33;;;;;;;;;;;;;;;32.32;27.48145;102134.2;;;;-71
2023/06/15 09:47:31;;;;;;;;;;;;;;;32.46;27.50195;102131;;;;-70
2023/06/15 09:52:31;;;;;;;;;;;;;;;32.53;27.24609;102135;;;;-70
2023/06/15 09:57:31;;;;;;;;;;;;;;;32.58;27.16602;102137.2;;;;-72
2023/06/15 10:02:31;;;;;;;;;;;;;;;32.72;26.63086;102135.7;;;;-74
2023/06/15 10:07:32;;;;;;;;;;;;;;;32.86;26.52148;102134.3;;;;-71
2023/06/15 10:11:50;;;;;;;0.2;0;;;;;;;;;;;;;-72
2023/06/15 10:12:32;;;;;;;;;;;;;;;33.03;26.11719;102140.2;;;;-72
2023/06/15 10:17:35;;;;;;;;;;;;;;;33.11;25.79004;102138.5;;;;-71
2023/06/15 10:22:30;;;;;;;;;;;;;;;33.14;25.75586;102136;;;;-72
2023/06/15 10:27:30;;;;;;;;;;;;;;;33.32;25.13965;102137.6;;;;-70
2023/06/15 10:32:35;;;;;;;;;;;;;;;33.53;25.19824;102141;;;;-70
2023/06/15 10:37:35;;;;;;;;;;;;;;;33.75;24.6416;102141.3;;;;-71
2023/06/15 10:41:56;;;;;;;0.1;0;;;;;;;;;;;;;-71
2023/06/15 10:42:31;;;;;;;;;;;;;;;33.88;25.66797;102140.5;;;;-70
2023/06/15 10:47:30;;;;;;;;;;;;;;;34;25.56836;102141.5;;;;-70
2023/06/15 10:52:39;;;;;;;;;;;;;;;34.18;25.22266;102129;;;;-70
2023/06/15 10:57:33;;;;;;;;;;;;;;;34.45;26.00781;102142.1;;;;-70
2023/06/15 11:03:00;;;;;;;;;;;;;;;34.64;25.74609;102141.5;;;;-71
2023/06/15 11:07:36;;;;;;;;;;;;;;;34.83;25.22266;102143.1;;;;-71
2023/06/15 11:12:03;;;;;;;0.2;0;;;;;;;;;;;;;-71
2023/06/15 11:12:40;;;;;;;;;;;;;;;34.96;24.14844;102135.8;;;;-71
2023/06/15 11:17:31;;;;;;;;;;;;;;;34.98;24.4707;102137.7;;;;-71
2023/06/15 11:22:32;;;;;;;;;;;;;;;35.18;24.75488;102135.1;;;;-73
2023/06/15 11:27:36;;;;;;;;;;;;;;;35.36;24.7041;102132.4;;;;-70
2023/06/15 11:32:35;;;;;;;;;;;;;;;35.56;24.02539;102133.7;;;;-72
2023/06/15 11:37:34;;;;;;;;;;;;;;;35.68;23.8291;102131.2;;;;-71
2023/06/15 11:42:07;;;;;;;0.1;0;;;;;;;;;;;;;-71
2023/06/15 11:42:31;;;;;;;;;;;;;;;35.77;23.85742;102131.9;;;;-72
2023/06/15 11:47:30;;;;;;;;;;;;;;;35.78;23.81055;102126.2;;;;-71
2023/06/15 11:52:31;;;;;;;;;;;;;;;35.94;22.99707;102123;;;;-72
2023/06/15 11:57:30;;;;;;;;;;;;;;;36.01;22.94043;102115.8;;;;-71
2023/06/15 12:02:30;;;;;;;;;;;;;;;36.2;21.99609;102119.3;;;;-71
2023/06/15 12:07:31;;;;;;;;;;;;;;;36.33;22.49219;102116.1;;;;-70
2023/06/15 12:12:23;;;;;;;0.2;0.1;;;;;;;;;;;;;-73
2023/06/15 12:12:38;;;;;;;;;;;;;;;36.32;22.4082;102110.2;;;;-73
2023/06/15 12:17:35;;;;;;;;;;;;;;;36.34;22.43262;102103.8;;;;-73
2023/06/15 12:22:35;;;;;;;;;;;;;;;36.3;22.37109;102104;;;;-71
2023/06/15 12:27:36;;;;;;;;;;;;;;;36.28;22.4541;102107.8;;;;-71
2023/06/15 12:32:31;;;;;;;;;;;;;;;36.34;22.03906;102101;;;;-71
2023/06/15 12:37:32;;;;;;;;;;;;;;;36.32;21.88281;102098.8;;;;-70
2023/06/15 12:42:26;;;;;;;0.2;0;;;;;;;;;;;;;-74
2023/06/15 12:42:40;;;;;;;;;;;;;;;36.2;21.85352;102098.3;;;;-72
2023/06/15 12:47:30;;;;;;;;;;;;;;;36.3;22.25195;102104;;;;-70
2023/06/15 12:52:30;;;;;;;;;;;;;;;36.31;22.39551;102088.4;;;;-71
2023/06/15 12:57:33;;;;;;;;;;;;;;;36.41;21.93457;102088.8;;;;-70
2023/06/15 13:02:31;;;;;;;;;;;;;;;36.5;22.16602;102083.3;;;;-71
2023/06/15 13:07:31;;;;;;;;;;;;;;;36.62;22.07617;102086.3;;;;-73
2023/06/15 13:12:28;;;;;;;0.2;0;;;;;;;;;;;;;-71
2023/06/15 13:12:38;;;;;;;;;;;;;;;36.7;22.34277;102086;;;;-73
2023/06/15 13:17:30;;;;;;;;;;;;;;;36.77;22.77539;102081.8;;;;-72
2023/06/15 13:22:34;;;;;;;;;;;;;;;36.78;23.02734;102076.6;;;;-70
2023/06/15 13:27:31;;;;;;;;;;;;;;;36.94;23.20215;102083.2;;;;-71
2023/06/15 13:32:30;;;;;;;;;;;;;;;36.92;23.1416;102081.9;;;;-71
2023/06/15 13:37:31;;;;;;;;;;;;;;;36.5;23.35938;102080;;;;-70
2023/06/15 13:42:31;;;;;;;;;;;;;;;36.6;22.62402;102074.4;;;;-71
2023/06/15 13:42:42;;;;;;;0.1;0;;;;;;;;;;;;;-71
2023/06/15 13:47:30;;;;;;;;;;;;;;;36.73;23.57324;102067.8;;;;-73
2023/06/15 13:52:30;;;;;;;;;;;;;;;36.87;21.49121;102073.6;;;;-70
2023/06/15 13:57:30;;;;;;;;;;;;;;;36.94;22.97559;102070.6;;;;-71
2023/06/15 14:02:36;;;;;;;;;;;;;;;37.02;23.20605;102069.2;;;;-70
2023/06/15 14:07:30;;;;;;;;;;;;;;;37.06;23.06445;102068.1;;;;-71
2023/06/15 14:12:30;;;;;;;;;;;;;;;36.92;22.80762;102067;;;;-71
2023/06/15 14:12:43;;;;;;;0.2;0;;;;;;;;;;;;;-71
2023/06/15 14:17:31;;;;;;;;;;;;;;;36.84;22.43359;102057.5;;;;-71
2023/06/15 14:22:32;;;;;;;;;;;;;;;36.8;22.58691;102053.9;;;;-73
2023/06/15 14:27:33;;;;;;;;;;;;;;;36.81;22.41992;102049.5;;;;-70
2023/06/15 14:32:31;;;;;;;;;;;;;;;36.8;22.06055;102050.6;;;;-72
2023/06/15 14:37:30;;;;;;;;;;;;;;;36.75;22.17773;102043.2;;;;-70
2023/06/15 14:42:31;;;;;;;;;;;;;;;36.91;21.02734;102048.6;;;;-72
2023/06/15 14:42:52;;;;;;;0.2;0;;;;;;;;;;;;;-70
2023/06/15 14:47:30;;;;;;;;;;;;;;;36.7;22.00781;102041.7;;;;-71
2023/06/15 14:52:31;;;;;;;;;;;;;;;36.59;21.52637;102045.1;;;;-71
2023/06/15 14:57:30;;;;;;;;;;;;;;;36.62;21.34863;102043.5;;;;-71
2023/06/15 15:02:30;;;;;;;;;;;;;;;36.56;20.95215;102039.5;;;;-71
2023/06/15 15:07:30;;;;;;;;;;;;;;;36.57;20.4502;102038.5;;;;-71
2023/06/15 15:12:32;;;;;;;;;;;;;;;36.52;21.34375;102029.9;;;;-72
2023/06/15 15:12:56;;;;;;;0.2;0;;;;;;;;;;;;;-70
2023/06/15 15:17:31;;;;;;;;;;;;;;;36.5;20.79395;102035.1;;;;-72
2023/06/15 15:22:31;;;;;;;;;;;;;;;36.41;20.71777;102029.9;;;;-71
2023/06/15 15:27:30;;;;;;;;;;;;;;;36.2;21.50781;102029.4;;;;-73
2023/06/15 15:32:30;;;;;;;;;;;;;;;35.89;21.0166;102028.7;;;;-71
2023/06/15 15:37:30;;;;;;;;;;;;;;;35.64;21.68359;102023.3;;;;-71
2023/06/15 15:42:30;;;;;;;;;;;;;;;35.43;21.6748;102030.2;;;;-72
2023/06/15 15:43:00;;;;;;;0.2;0;;;;;;;;;;;;;-70
2023/06/15 15:47:32;;;;;;;;;;;;;;;35.23;22.08008;102027.8;;;;-72
2023/06/15 15:52:30;;;;;;;;;;;;;;;35.08;22.22852;102023.5;;;;-73
2023/06/15 15:57:33;;;;;;;;;;;;;;;34.95;22.31738;102021.2;;;;-71
2023/06/15 16:02:36;;;;;;;;;;;;;;;34.95;22.67383;102018.3;;;;-71
2023/06/15 16:07:38;;;;;;;;;;;;;;;34.89;22.69434;102017.7;;;;-72
2023/06/15 16:12:37;;;;;;;;;;;;;;;34.77;22.72461;102020.1;;;;-70
2023/06/15 16:13:25;;;;;;;0.1;0;;;;;;;;;;;;;-73
2023/06/15 16:17:30;;;;;;;;;;;;;;;34.56;23.33203;102020.9;;;;-72
2023/06/15 16:22:31;;;;;;;;;;;;;;;34.42;23.41992;102014.7;;;;-71
2023/06/15 16:27:30;;;;;;;;;;;;;;;34.2;23.49121;102011.3;;;;-72
2023/06/15 16:32:40;;;;;;;;;;;;;;;34.12;23.7002;102005.8;;;;-71
2023/06/15 16:37:30;;;;;;;;;;;;;;;33.99;23.81348;102002.8;;;;-68
2023/06/15 16:42:31;;;;;;;;;;;;;;;33.83;24.06445;101997.7;;;;-67
2023/06/15 16:43:13;;;;;;;0.2;0;;;;;;;;;;;;;-69
2023/06/15 16:47:30;;;;;;;;;;;;;;;33.66;24.10352;102005.2;;;;-69
2023/06/15 16:52:32;;;;;;;;;;;;;;;33.52;24.14355;102003.4;;;;-67
2023/06/15 16:57:30;;;;;;;;;;;;;;;33.32;24.46484;102006.2;;;;-67
2023/06/15 17:02:31;;;;;;;;;;;;;;;33.16;24.36133;102011.5;;;;-67
2023/06/15 17:07:30;;;;;;;;;;;;;;;32.99;24.55371;102011.4;;;;-69
2023/06/15 17:12:33;;;;;;;;;;;;;;;32.8;24.54395;102014.4;;;;-72
2023/06/15 17:13:20;;;;;;;0.1;0;;;;;;;;;;;;;-69
2023/06/15 17:17:30;;;;;;;;;;;;;;;32.61;24.4502;102011;;;;-68
2023/06/15 17:22:30;;;;;;;;;;;;;;;32.31;24.43359;102010.5;;;;-67
2023/06/15 17:27:30;;;;;;;;;;;;;;;32.13;24.97949;102009.9;;;;-67
2023/06/15 17:32:30;;;;;;;;;;;;;;;31.92;25.10938;102005.4;;;;-68
2023/06/15 17:37:30;;;;;;;;;;;;;;;31.76;25.34863;102003.9;;;;-67
2023/06/15 17:42:30;;;;;;;;;;;;;;;31.6;25.43359;102008.7;;;;-69
2023/06/15 17:43:28;;;;;;;0.2;0;;;;;;;;;;;;;-69
2023/06/15 17:47:32;;;;;;;;;;;;;;;31.39;25.5166;102006;;;;-67
2023/06/15 17:52:34;;;;;;;;;;;;;;;31.14;25.66699;102008.3;;;;-68
2023/06/15 17:57:30;;;;;;;;;;;;;;;30.96;26.0459;102008.8;;;;-70
2023/06/15 18:02:31;;;;;;;;;;;;;;;30.82;26.32031;102007;;;;-66
2023/06/15 18:07:33;;;;;;;;;;;;;;;30.69;26.46582;102012.3;;;;-68
2023/06/15 18:12:30;;;;;;;;;;;;;;;30.53;26.71484;102016.5;;;;-67
2023/06/15 18:13:31;;;;;;;0.2;0.1;;;;;;;;;;;;;-66
2023/06/15 18:17:33;;;;;;;;;;;;;;;30.36;26.89258;102019.6;;;;-68
2023/06/15 18:22:30;;;;;;;;;;;;;;;30.23;27.0498;102024;;;;-66
2023/06/15 18:27:30;;;;;;;;;;;;;;;29.99;27.41113;102025.8;;;;-67
2023/06/15 18:32:34;;;;;;;;;;;;;;;29.86;27.56836;102030.1;;;;-67
2023/06/15 18:37:31;;;;;;;;;;;;;;;29.73;27.81836;102033.9;;;;-68
2023/06/15 18:42:36;;;;;;;;;;;;;;;29.59;27.85645;102035.6;;;;-70
2023/06/15 18:43:42;;;;;;;0.2;0;;;;;;;;;;;;;-70
2023/06/15 18:47:30;;;;;;;;;;;;;;;29.47;27.87207;102034.9;;;;-70
2023/06/15 18:52:34;;;;;;;;;;;;;;;29.33;28.16895;102029.7;;;;-69
2023/06/15 18:57:33;;;;;;;;;;;;;;;29.1;28.27148;102033.3;;;;-69
2023/06/15 19:02:30;;;;;;;;;;;;;;;28.84;28.25586;102032.5;;;;-69
2023/06/15 19:07:30;;;;;;;;;;;;;;;28.57;29.01074;102033.7;;;;-69
2023/06/15 19:12:33;;;;;;;;;;;;;;;28.31;29.47363;102030.9;;;;-69
2023/06/15 19:13:48;;;;;;;0.2;0;;;;;;;;;;;;;-72
2023/06/15 19:17:33;;;;;;;;;;;;;;;28.04;29.50293;102031.9;;;;-68
2023/06/15 19:22:32;;;;;;;;;;;;;;;27.77;29.56738;102033.3;;;;-70
2023/06/15 19:27:30;;;;;;;;;;;;;;;27.51;29.375;102032;;;;-70
2023/06/15 19:32:31;;;;;;;;;;;;;;;27.23;30.01074;102031.6;;;;-70
2023/06/15 19:37:30;;;;;;;;;;;;;;;26.99;29.66699;102033.8;;;;-69
2023/06/15 19:42:30;;;;;;;;;;;;;;;26.76;30.31641;102042.3;;;;-70
2023/06/15 19:43:46;;;;;;;0.2;0.1;;;;;;;;;;;;;-71
2023/06/15 19:47:31;;;;;;;;;;;;;;;26.5;30.54297;102046.5;;;;-71
2023/06/15 19:52:30;;;;;;;;;;;;;;;26.26;30.57324;102047.7;;;;-69
2023/06/15 19:57:31;;;;;;;;;;;;;;;26;30.93945;102044;;;;-69
2023/06/15 20:02:33;;;;;;;;;;;;;;;25.79;31.00684;102043.6;;;;-69
2023/06/15 20:07:30;;;;;;;;;;;;;;;25.57;31.46777;102048.8;;;;-69
2023/06/15 20:12:33;;;;;;;;;;;;;;;25.35;31.65039;102049;;;;-69
2023/06/15 20:13:52;;;;;;;0.2;0;;;;;;;;;;;;;-70
2023/06/15 20:17:31;;;;;;;;;;;;;;;25.14;31.63477;102059;;;;-70
2023/06/15 20:22:31;;;;;;;;;;;;;;;24.94;32.23535;102059.4;;;;-71
2023/06/15 20:27:30;;;;;;;;;;;;;;;24.65;33.21094;102059.6;;;;-77
2023/06/15 20:32:30;;;;;;;;;;;;;;;23.7;40.75098;102057.4;;;;-71
2023/06/15 20:37:33;;;;;;;;;;;;;;;24.13;37.00098;102061.4;;;;-71
2023/06/15 20:42:30;;;;;;;;;;;;;;;24.1;36.00488;102065;;;;-67
2023/06/15 20:43:55;;;;;;;0.2;0.1;;;;;;;;;;;;;-69
2023/06/15 20:47:30;;;;;;;;;;;;;;;23.93;35.78223;102066.3;;;;-66
2023/06/15 20:52:30;;;;;;;;;;;;;;;23.82;35.63574;102067.4;;;;-66
2023/06/15 20:57:30;;;;;;;;;;;;;;;23.62;35.82715;102065.8;;;;-67
2023/06/15 21:02:30;;;;;;;;;;;;;;;23.51;35.72559;102057.7;;;;-67
2023/06/15 21:07:30;;;;;;;;;;;;;;;23.35;35.80566;102056.6;;;;-66
2023/06/15 21:12:30;;;;;;;;;;;;;;;23.24;35.91211;102058.7;;;;-67
2023/06/15 21:13:59;;;;;;;0.3;0.1;;;;;;;;;;;;;-67
2023/06/15 21:17:30;;;;;;;;;;;;;;;23.09;36.06152;102059.2;;;;-68
2023/06/15 21:22:30;;;;;;;;;;;;;;;22.95;35.95801;102057.8;;;;-66
2023/06/15 21:27:30;;;;;;;;;;;;;;;22.84;36.26074;102059.9;;;;-66
2023/06/15 21:32:31;;;;;;;;;;;;;;;22.7;36.375;102054.9;;;;-66
2023/06/15 21:37:30;;;;;;;;;;;;;;;22.61;36.42578;102055.5;;;;-67
2023/06/15 21:42:30;;;;;;;;;;;;;;;22.54;36.06348;102057;;;;-66
2023/06/15 21:44:02;;;;;;;0.2;0;;;;;;;;;;;;;-68
2023/06/15 21:47:31;;;;;;;;;;;;;;;22.36;36.3252;102050.9;;;;-69
2023/06/15 21:52:30;;;;;;;;;;;;;;;22.25;36.61621;102051.7;;;;-67
2023/06/15 21:57:30;;;;;;;;;;;;;;;22.18;36.73633;102050.9;;;;-68
2023/06/15 22:02:30;;;;;;;;;;;;;;;22.09;36.71777;102054.7;;;;-67
2023/06/15 22:07:30;;;;;;;;;;;;;;;22.01;36.88379;102052;;;;-68
2023/06/15 22:12:32;;;;;;;;;;;;;;;21.92;37.15234;102049.6;;;;-69
2023/06/15 22:14:06;;;;;;;0.3;0.1;;;;;;;;;;;;;-67
2023/06/15 22:17:30;;;;;;;;;;;;;;;21.81;37.06348;102053.2;;;;-68
2023/06/15 22:22:30;;;;;;;;;;;;;;;21.72;37.06641;102058.6;;;;-68
2023/06/15 22:27:30;;;;;;;;;;;;;;;21.67;37.44141;102055.2;;;;-68
2023/06/15 22:32:30;;;;;;;;;;;;;;;21.53;37.31445;102054.5;;;;-68
2023/06/15 22:37:30;;;;;;;;;;;;;;;21.44;37.35352;102055.8;;;;-67
2023/06/15 22:42:30;;;;;;;;;;;;;;;21.3;37.6748;102060.8;;;;-68
2023/06/15 22:44:10;;;;;;;0.2;0;;;;;;;;;;;;;-68
2023/06/15 22:47:32;;;;;;;;;;;;;;;21.26;37.50977;102066.8;;;;-68
2023/06/15 22:52:32;;;;;;;;;;;;;;;21.21;37.74805;102058.6;;;;-66
2023/06/15 22:57:30;;;;;;;;;;;;;;;21.06;37.86035;102061;;;;-67
2023/06/15 23:02:31;;;;;;;;;;;;;;;20.98;37.90039;102058.9;;;;-68
2023/06/15 23:07:31;;;;;;;;;;;;;;;20.96;37.89746;102060.9;;;;-67
2023/06/15 23:12:32;;;;;;;;;;;;;;;20.81;38.15039;102060.1;;;;-67
2023/06/15 23:14:12;;;;;;;0.5;0.2;;;;;;;;;;;;;-69
2023/06/15 23:17:31;;;;;;;;;;;;;;;20.75;38.16699;102061.5;;;;-68
2023/06/15 23:22:32;;;;;;;;;;;;;;;20.67;38.29785;102061;;;;-67
2023/06/15 23:27:30;;;;;;;;;;;;;;;20.6;38.47559;102054.8;;;;-67
2023/06/15 23:32:30;;;;;;;;;;;;;;;20.48;38.6709;102060.1;;;;-67
2023/06/15 23:37:30;;;;;;;;;;;;;;;20.38;38.82227;102056.8;;;;-66
2023/06/15 23:42:30;;;;;;;;;;;;;;;20.34;39.08301;102056.8;;;;-67
2023/06/15 23:44:16;;;;;;;0.2;0.1;;;;;;;;;;;;;-66
2023/06/15 23:47:30;;;;;;;;;;;;;;;20.31;39.03418;102048.9;;;;-68
2023/06/15 23:52:30;;;;;;;;;;;;;;;20.19;39.11523;102047.5;;;;-67
2023/06/15 23:57:30;;;;;;;;;;;;;;;20.13;39.14453;102047.3;;;;-68
